Terminal Aerodrome Forecast
Issued by NWS

Current Version | Previous Version | Graphics & Text | Print | Product List | Glossary On
Versions: 1 2 3 4 5 6 7 8 9 10 11 12 13 14 15 16 17 18 19 20 21 22 23 24 25
000
FTUS41 KILN 071700
TAFLUK
TAF
KLUK 071730Z 0718/0818 22012G22KT P6SM SCT040 BKN120
     FM072000 22012G22KT P6SM VCSH BKN040
      TEMPO 0721/0724 5SM -TSRA BR BKN035CB
     FM080000 21010KT P6SM VCSH BKN040
     FM080800 20010KT P6SM VCSH BKN025
     FM081200 20012KT 5SM -SHRA VCTS BKN025CB
     FM081500 22012G20KT P6SM BKN035=

USA.gov is the U.S. government's official web portal to all federal, state and local government web resources and services.